Time;durP1;ratioP1;P1;durP2;ratioP2;P2;SDS_P1;SDS_P2;PMS_P1;PMS_P2;Temp;Humidity;BMP_temperature;BMP_pressure;BME280_temperature;BME280_humidity;BME280_pressure;Samples;Min_cycle;Max_cycle;Signal;HPM_P1;HPM_P2
2023/08/19 00:02:32;;;;;;;4.77;3.70;;;;;;;;;;5032244;28;20219;-75
2023/08/19 00:05:36;;;;;;;4.80;3.80;;;;;;;;;;5055540;28;20212;-74
2023/08/19 00:08:40;;;;;;;7.50;4.10;;;;;;;;;;5055741;28;20512;-74
2023/08/19 00:11:44;;;;;;;5.57;3.43;;;;;;;;;;5042132;28;20216;-74
2023/08/19 00:14:49;;;;;;;5.10;3.77;;;;;;;;;;5043161;28;20180;-74
2023/08/19 00:17:53;;;;;;;4.00;3.50;;;;;;;;;;5055956;28;20616;-74
2023/08/19 00:20:58;;;;;;;8.57;4.10;;;;;;;;;;5055496;28;20180;-74
2023/08/19 00:24:02;;;;;;;6.70;4.50;;;;;;;;;;5043189;28;20211;-74
2023/08/19 00:27:06;;;;;;;8.53;4.03;;;;;;;;;;5043141;28;20180;-73
2023/08/19 00:30:11;;;;;;;6.47;4.10;;;;;;;;;;5055477;28;20184;-73
2023/08/19 00:33:15;;;;;;;4.20;3.60;;;;;;;;;;5043231;28;20172;-74
2023/08/19 00:36:19;;;;;;;7.00;4.33;;;;;;;;;;5042771;28;20176;-74
2023/08/19 00:39:23;;;;;;;5.00;4.00;;;;;;;;;;5043406;28;20196;-75
2023/08/19 00:42:27;;;;;;;9.33;4.43;;;;;;;;;;5042647;28;20215;-75
2023/08/19 00:45:32;;;;;;;5.23;4.20;;;;;;;;;;5042578;28;20211;-75
2023/08/19 00:48:36;;;;;;;4.90;4.40;;;;;;;;;;5031367;28;20517;-74
2023/08/19 00:51:40;;;;;;;6.43;4.27;;;;;;;;;;5042616;28;20219;-74
2023/08/19 00:54:44;;;;;;;10.13;4.20;;;;;;;;;;5042630;28;20180;-74
2023/08/19 00:57:48;;;;;;;4.90;4.40;;;;;;;;;;5042871;28;20196;-75
2023/08/19 01:00:53;;;;;;;5.40;3.97;;;;;;;;;;5042438;28;20180;-74
2023/08/19 01:03:58;;;;;;;4.30;3.90;;;;;;;;;;5042232;28;20219;-74
2023/08/19 01:07:28;;;;;;;7.00;4.73;;;;;;;;;;5054636;28;20180;-74
2023/08/19 01:10:37;;;;;;;7.53;4.73;;;;;;;;;;5030964;28;20183;-74
2023/08/19 01:13:57;;;;;;;5.50;4.53;;;;;;;;;;5030787;28;20188;-74
2023/08/19 01:17:03;;;;;;;6.57;4.50;;;;;;;;;;5042247;28;20184;-73
2023/08/19 01:20:10;;;;;;;5.47;4.33;;;;;;;;;;5042165;28;20200;-73
2023/08/19 01:23:27;;;;;;;5.33;4.37;;;;;;;;;;5041797;28;20623;-73
2023/08/19 01:26:31;;;;;;;7.03;4.73;;;;;;;;;;5041894;28;20173;-74
2023/08/19 01:29:35;;;;;;;8.40;4.63;;;;;;;;;;5053978;28;20176;-74
2023/08/19 01:32:39;;;;;;;8.50;4.50;;;;;;;;;;5041635;28;20220;-73
2023/08/19 01:35:51;;;;;;;7.50;4.50;;;;;;;;;;5030342;28;20172;-73
2023/08/19 01:39:05;;;;;;;7.63;4.10;;;;;;;;;;5041732;28;20180;-73
2023/08/19 01:42:10;;;;;;;5.97;4.27;;;;;;;;;;5053742;28;20216;-73
2023/08/19 01:45:14;;;;;;;5.00;4.00;;;;;;;;;;5041334;28;20207;-73
2023/08/19 01:48:18;;;;;;;5.30;4.60;;;;;;;;;;5041250;28;20180;-73
2023/08/19 01:51:22;;;;;;;4.80;4.17;;;;;;;;;;5041538;28;20686;-73
2023/08/19 01:54:26;;;;;;;4.50;4.10;;;;;;;;;;5030000;28;20659;-73
2023/08/19 01:57:30;;;;;;;5.60;4.37;;;;;;;;;;5053739;28;20199;-74
2023/08/19 02:00:34;;;;;;;5.00;4.03;;;;;;;;;;5041444;28;20196;-73
2023/08/19 02:03:39;;;;;;;5.00;4.20;;;;;;;;;;5041303;28;20180;-73
2023/08/19 02:06:43;;;;;;;5.03;4.10;;;;;;;;;;5041377;28;20180;-73
2023/08/19 02:09:47;;;;;;;6.80;4.17;;;;;;;;;;5041290;28;20180;-73
2023/08/19 02:12:51;;;;;;;5.03;4.30;;;;;;;;;;5053215;28;20216;-73
2023/08/19 02:15:56;;;;;;;4.47;4.03;;;;;;;;;;5029711;28;20177;-73
2023/08/19 02:19:00;;;;;;;8.30;3.83;;;;;;;;;;5030188;28;20192;-73
2023/08/19 02:22:04;;;;;;;6.33;3.87;;;;;;;;;;5040915;28;20212;-73
2023/08/19 02:25:08;;;;;;;5.33;4.27;;;;;;;;;;5040803;28;20199;-73
2023/08/19 02:28:12;;;;;;;5.73;4.00;;;;;;;;;;5029381;28;20556;-73
2023/08/19 02:31:16;;;;;;;4.47;3.80;;;;;;;;;;5040928;28;20683;-73
2023/08/19 02:34:21;;;;;;;5.97;4.50;;;;;;;;;;5040435;28;20176;-73
2023/08/19 02:37:26;;;;;;;9.17;4.40;;;;;;;;;;5053230;28;20180;-73
2023/08/19 02:40:31;;;;;;;5.43;4.70;;;;;;;;;;5040707;28;20180;-73
2023/08/19 02:43:36;;;;;;;4.97;4.20;;;;;;;;;;5040891;28;20176;-73
2023/08/19 02:46:40;;;;;;;5.10;4.07;;;;;;;;;;5052782;28;20683;-73
2023/08/19 02:49:44;;;;;;;4.47;4.03;;;;;;;;;;5029386;28;20176;-73
2023/08/19 02:52:49;;;;;;;6.30;4.40;;;;;;;;;;5040766;28;20215;-73
2023/08/19 02:55:53;;;;;;;9.40;4.60;;;;;;;;;;5040568;28;20176;-73
2023/08/19 02:58:57;;;;;;;8.07;4.40;;;;;;;;;;5052733;28;20176;-73
2023/08/19 03:02:01;;;;;;;4.53;4.07;;;;;;;;;;5052663;28;20694;-73
2023/08/19 03:05:05;;;;;;;5.87;4.67;;;;;;;;;;5040488;28;20203;-73
2023/08/19 03:08:10;;;;;;;5.23;4.30;;;;;;;;;;5052649;28;20184;-73
2023/08/19 03:11:14;;;;;;;6.57;4.57;;;;;;;;;;5040525;28;20219;-73
2023/08/19 03:14:18;;;;;;;6.77;4.40;;;;;;;;;;5040628;28;20627;-73
2023/08/19 03:17:22;;;;;;;4.50;4.10;;;;;;;;;;5052710;28;20631;-73
2023/08/19 03:20:27;;;;;;;9.77;4.33;;;;;;;;;;5052825;28;20185;-73
2023/08/19 03:23:31;;;;;;;6.17;4.07;;;;;;;;;;5040815;28;20180;-73
2023/08/19 03:26:36;;;;;;;4.87;4.33;;;;;;;;;;5040119;28;20204;-73
2023/08/19 03:29:40;;;;;;;4.87;4.10;;;;;;;;;;5040549;28;20180;-73
2023/08/19 03:32:44;;;;;;;7.13;4.70;;;;;;;;;;5040064;28;20215;-73
2023/08/19 03:35:48;;;;;;;4.97;4.43;;;;;;;;;;5040459;28;20177;-73
2023/08/19 03:38:52;;;;;;;4.60;4.20;;;;;;;;;;5040167;28;20192;-73
2023/08/19 03:41:57;;;;;;;6.40;4.67;;;;;;;;;;5052354;28;20224;-73
2023/08/19 03:45:01;;;;;;;5.87;5.03;;;;;;;;;;5041451;28;20184;-73
2023/08/19 03:48:07;;;;;;;5.13;4.63;;;;;;;;;;5044295;28;20168;-73
2023/08/19 03:51:12;;;;;;;7.30;4.93;;;;;;;;;;5032349;28;20562;-73
2023/08/19 03:54:17;;;;;;;6.47;4.97;;;;;;;;;;5043698;28;20176;-75
2023/08/19 03:57:21;;;;;;;5.30;4.63;;;;;;;;;;5043473;28;20643;-73
2023/08/19 04:00:25;;;;;;;5.23;4.73;;;;;;;;;;5055911;28;20172;-73
2023/08/19 04:03:29;;;;;;;7.23;4.57;;;;;;;;;;5043833;28;20176;-73
2023/08/19 04:06:34;;;;;;;6.03;4.40;;;;;;;;;;5043592;28;20207;-73
2023/08/19 04:09:39;;;;;;;5.50;4.27;;;;;;;;;;5043534;28;20181;-73
2023/08/19 04:12:43;;;;;;;5.17;4.67;;;;;;;;;;5043376;28;20540;-73
2023/08/19 04:15:48;;;;;;;4.47;4.07;;;;;;;;;;5043437;28;20520;-73
2023/08/19 04:18:52;;;;;;;5.67;4.70;;;;;;;;;;5055624;28;20181;-73
2023/08/19 04:21:55;;;;;;;4.80;4.40;;;;;;;;;;5055219;28;20215;-73
2023/08/19 04:25:02;;;;;;;6.47;4.83;;;;;;;;;;5043200;28;20180;-73
2023/08/19 04:28:07;;;;;;;6.17;5.10;;;;;;;;;;5043096;28;20631;-73
2023/08/19 04:31:12;;;;;;;5.17;4.67;;;;;;;;;;5042618;28;20216;-73
2023/08/19 04:34:27;;;;;;;7.50;5.10;;;;;;;;;;5042827;28;20181;-73
2023/08/19 04:37:32;;;;;;;5.97;5.03;;;;;;;;;;5042756;28;20180;-73
2023/08/19 04:40:36;;;;;;;7.03;4.00;;;;;;;;;;5042625;28;20196;-73
2023/08/19 04:43:40;;;;;;;5.30;4.80;;;;;;;;;;5042545;28;20184;-73
2023/08/19 04:46:44;;;;;;;8.47;4.63;;;;;;;;;;5042400;28;20231;-73
2023/08/19 04:49:49;;;;;;;7.83;5.17;;;;;;;;;;5042871;28;20184;-73
2023/08/19 04:52:54;;;;;;;6.67;5.07;;;;;;;;;;5042286;28;20576;-73
2023/08/19 04:56:02;;;;;;;5.30;4.80;;;;;;;;;;5041787;28;20192;-73
2023/08/19 04:59:06;;;;;;;6.87;4.50;;;;;;;;;;5042584;28;20176;-73
2023/08/19 05:02:10;;;;;;;5.87;4.80;;;;;;;;;;5042265;28;20560;-73
2023/08/19 05:05:16;;;;;;;7.10;4.80;;;;;;;;;;5042376;28;20176;-73
2023/08/19 05:08:20;;;;;;;5.77;4.80;;;;;;;;;;5054688;28;20180;-73
2023/08/19 05:11:24;;;;;;;7.13;4.93;;;;;;;;;;5041909;28;20559;-73
2023/08/19 05:14:32;;;;;;;5.90;5.27;;;;;;;;;;5042030;28;20180;-73
2023/08/19 05:17:36;;;;;;;6.33;4.63;;;;;;;;;;5054159;28;20543;-73
2023/08/19 05:20:42;;;;;;;4.87;4.37;;;;;;;;;;5054168;28;20216;-73
2023/08/19 05:24:12;;;;;;;5.87;4.67;;;;;;;;;;5058108;22;20203;-74
2023/08/19 05:27:17;;;;;;;5.17;4.67;;;;;;;;;;5040419;28;20232;-75
2023/08/19 05:30:21;;;;;;;5.80;4.40;;;;;;;;;;5053716;28;20180;-75
2023/08/19 05:33:26;;;;;;;4.80;4.33;;;;;;;;;;5034309;28;20524;-75
2023/08/19 05:36:30;;;;;;;5.07;4.50;;;;;;;;;;5034176;28;20168;-75
2023/08/19 05:39:34;;;;;;;10.10;6.13;;;;;;;;;;5021735;28;20188;-75
2023/08/19 05:42:38;;;;;;;7.57;6.50;;;;;;;;;;5033917;28;20220;-75
2023/08/19 05:45:43;;;;;;;7.87;6.50;;;;;;;;;;5021990;28;20217;-74
2023/08/19 05:48:47;;;;;;;7.40;6.60;;;;;;;;;;5033654;28;20181;-74
2023/08/19 05:51:51;;;;;;;7.60;6.43;;;;;;;;;;5021270;28;20208;-74
2023/08/19 05:54:55;;;;;;;11.90;6.47;;;;;;;;;;5021461;28;20532;-74
2023/08/19 05:57:59;;;;;;;7.63;6.57;;;;;;;;;;5033539;28;20172;-74
2023/08/19 06:01:06;;;;;;;8.30;6.70;;;;;;;;;;5033580;28;20177;-75
2023/08/19 06:04:10;;;;;;;6.73;5.97;;;;;;;;;;5021400;28;20643;-74
2023/08/19 06:07:15;;;;;;;8.27;6.90;;;;;;;;;;5032493;28;20679;-75
2023/08/19 06:10:19;;;;;;;7.63;6.03;;;;;;;;;;5032379;28;20188;-75
2023/08/19 06:13:23;;;;;;;6.70;6.00;;;;;;;;;;5033332;28;20180;-74
2023/08/19 06:16:27;;;;;;;6.47;5.83;;;;;;;;;;5021135;28;20177;-75
2023/08/19 06:19:31;;;;;;;7.73;5.90;;;;;;;;;;5032716;28;20185;-74
2023/08/19 06:22:35;;;;;;;6.60;6.00;;;;;;;;;;5032704;28;20224;-74
2023/08/19 06:25:43;;;;;;;8.10;6.83;;;;;;;;;;5033127;28;20679;-74
2023/08/19 06:28:48;;;;;;;8.43;6.00;;;;;;;;;;5021494;28;20189;-74
2023/08/19 06:31:53;;;;;;;7.27;6.57;;;;;;;;;;5033290;28;20221;-75
2023/08/19 06:34:58;;;;;;;6.60;6.00;;;;;;;;;;5021152;28;20173;-75
2023/08/19 06:38:31;;;;;;;7.50;5.10;;;;;;;;;;5020970;28;20197;-74
2023/08/19 06:41:39;;;;;;;16.27;5.73;;;;;;;;;;5020557;28;20560;-75
2023/08/19 06:44:48;;;;;;;9.30;7.13;;;;;;;;;;5022011;28;20181;-74
2023/08/19 06:47:53;;;;;;;8.80;6.90;;;;;;;;;;5032881;28;20679;-75
2023/08/19 06:50:57;;;;;;;9.40;5.73;;;;;;;;;;5032447;28;20512;-74
2023/08/19 06:54:02;;;;;;;6.77;6.13;;;;;;;;;;5033372;28;20636;-74
2023/08/19 06:57:15;;;;;;;6.60;5.60;;;;;;;;;;5033438;28;20521;-74
2023/08/19 07:00:22;;;;;;;7.77;5.97;;;;;;;;;;5020984;28;20173;-74
2023/08/19 07:03:33;;;;;;;7.47;5.93;;;;;;;;;;5009818;28;20647;-74
2023/08/19 07:06:37;;;;;;;7.40;6.50;;;;;;;;;;5020907;28;20213;-73
2023/08/19 07:09:42;;;;;;;8.93;6.60;;;;;;;;;;5033081;28;20181;-73
2023/08/19 07:12:47;;;;;;;8.27;6.80;;;;;;;;;;5032994;28;20216;-74
2023/08/19 07:15:58;;;;;;;8.67;6.30;;;;;;;;;;5020846;28;20177;-73
2023/08/19 07:19:07;;;;;;;9.10;6.13;;;;;;;;;;5033868;28;20192;-74
2023/08/19 07:22:11;;;;;;;6.20;5.60;;;;;;;;;;5026936;28;20560;-74
2023/08/19 07:25:15;;;;;;;6.17;5.33;;;;;;;;;;5038851;28;20201;-74
2023/08/19 07:28:23;;;;;;;7.87;5.30;;;;;;;;;;5038643;28;20674;-74
2023/08/19 07:31:28;;;;;;;9.40;6.20;;;;;;;;;;5026468;28;20213;-73
2023/08/19 07:34:32;;;;;;;6.40;5.60;;;;;;;;;;5037822;28;20177;-73
2023/08/19 07:37:37;;;;;;;7.63;5.33;;;;;;;;;;5038361;28;20178;-74
2023/08/19 07:40:41;;;;;;;8.10;5.57;;;;;;;;;;5037925;28;20200;-73
2023/08/19 07:43:46;;;;;;;5.13;4.63;;;;;;;;;;5038253;28;20640;-74
2023/08/19 07:46:50;;;;;;;8.77;4.60;;;;;;;;;;5037810;28;20209;-74
2023/08/19 07:49:54;;;;;;;8.27;3.77;;;;;;;;;;5038564;28;20517;-74
2023/08/19 07:52:59;;;;;;;6.33;3.43;;;;;;;;;;5026372;28;20214;-73
2023/08/19 07:56:04;;;;;;;5.97;3.37;;;;;;;;;;5025930;28;20512;-74
2023/08/19 07:59:10;;;;;;;4.53;3.13;;;;;;;;;;5038491;28;20177;-73
2023/08/19 08:02:14;;;;;;;8.27;3.50;;;;;;;;;;5038351;28;20721;-74
2023/08/19 08:05:18;;;;;;;4.18;3.42;;;;;;;;;;5014772;28;20179;-73
2023/08/19 08:08:23;;;;;;;10.30;3.90;;;;;;;;;;5038761;28;20567;-72
2023/08/19 08:11:26;;;;;;;5.35;3.35;;;;;;;;;;5038575;28;20568;-73
2023/08/19 08:14:31;;;;;;;6.40;3.30;;;;;;;;;;5037988;28;20184;-73
2023/08/19 08:17:35;;;;;;;3.47;3.10;;;;;;;;;;5037352;28;20175;-75
2023/08/19 08:20:39;;;;;;;4.90;3.03;;;;;;;;;;5037761;28;20641;-73
2023/08/19 08:23:43;;;;;;;7.35;3.30;;;;;;;;;;5036629;28;20662;-74
2023/08/19 08:26:47;;;;;;;5.93;3.30;;;;;;;;;;5037182;28;20231;-73
2023/08/19 08:29:51;;;;;;;5.00;3.33;;;;;;;;;;5036896;28;20182;-73
2023/08/19 08:32:56;;;;;;;4.22;3.15;;;;;;;;;;5036094;28;20572;-73
2023/08/19 08:36:01;;;;;;;8.70;3.55;;;;;;;;;;5024534;28;20170;-74
2023/08/19 08:39:05;;;;;;;3.55;3.17;;;;;;;;;;5036454;28;20509;-73
2023/08/19 08:42:09;;;;;;;4.82;3.20;;;;;;;;;;5036573;28;20213;-73
2023/08/19 08:45:14;;;;;;;5.75;2.50;;;;;;;;;;5023726;28;20181;-73
2023/08/19 08:48:18;;;;;;;6.07;2.97;;;;;;;;;;5036122;28;20213;-74
2023/08/19 08:51:24;;;;;;;3.72;2.83;;;;;;;;;;5035860;28;20220;-71
2023/08/19 08:54:29;;;;;;;5.70;2.92;;;;;;;;;;5035843;28;20185;-71
2023/08/19 08:57:34;;;;;;;4.03;2.80;;;;;;;;;;5036080;28;20173;-71
2023/08/19 09:00:38;;;;;;;3.22;2.92;;;;;;;;;;5035689;28;20189;-72
2023/08/19 09:03:44;;;;;;;2.92;2.60;;;;;;;;;;5035786;28;20181;-71
2023/08/19 09:06:53;;;;;;;6.05;3.22;;;;;;;;;;5035205;28;20679;-71
2023/08/19 09:09:58;;;;;;;5.72;2.90;;;;;;;;;;5023161;28;20177;-71
2023/08/19 09:13:04;;;;;;;3.00;2.40;;;;;;;;;;5022905;28;20216;-71
2023/08/19 09:16:11;;;;;;;3.50;2.55;;;;;;;;;;5034853;28;20174;-71
2023/08/19 09:19:15;;;;;;;3.40;2.38;;;;;;;;;;5034766;28;20169;-72
2023/08/19 09:22:21;;;;;;;2.50;2.30;;;;;;;;;;5034925;28;20217;-72
2023/08/19 09:25:29;;;;;;;2.83;2.60;;;;;;;;;;5035000;28;20201;-72
2023/08/19 09:28:33;;;;;;;3.35;2.53;;;;;;;;;;5022275;28;20205;-72
2023/08/19 09:31:40;;;;;;;2.78;2.53;;;;;;;;;;5034683;28;20212;-72
2023/08/19 09:34:44;;;;;;;4.63;2.58;;;;;;;;;;5034864;28;20632;-72
2023/08/19 09:37:49;;;;;;;6.30;2.78;;;;;;;;;;5034558;28;20513;-72
2023/08/19 09:41:11;;;;;;;4.80;2.90;;;;;;;;;;5034466;28;20522;-72
2023/08/19 09:44:15;;;;;;;3.10;2.47;;;;;;;;;;5034320;28;20522;-73
2023/08/19 09:47:19;;;;;;;2.90;2.25;;;;;;;;;;5010918;28;20204;-72
2023/08/19 09:50:23;;;;;;;4.60;2.58;;;;;;;;;;5034112;28;20189;-72
2023/08/19 09:53:30;;;;;;;2.83;2.33;;;;;;;;;;5034059;28;20522;-73
2023/08/19 09:56:34;;;;;;;5.07;2.65;;;;;;;;;;5034131;28;20182;-73
2023/08/19 09:59:38;;;;;;;4.35;2.70;;;;;;;;;;5034100;28;20185;-72
2023/08/19 10:02:43;;;;;;;2.80;2.58;;;;;;;;;;5033877;28;20213;-73
2023/08/19 10:05:52;;;;;;;3.78;2.40;;;;;;;;;;5033846;28;20185;-72
2023/08/19 10:09:04;;;;;;;3.35;2.35;;;;;;;;;;5021500;28;20679;-72
2023/08/19 10:12:14;;;;;;;4.05;2.40;;;;;;;;;;5033827;28;20217;-72
2023/08/19 10:15:20;;;;;;;3.05;2.35;;;;;;;;;;5033622;28;20181;-72
2023/08/19 10:18:29;;;;;;;3.67;2.53;;;;;;;;;;5033669;28;20508;-73
2023/08/19 10:21:35;;;;;;;7.47;2.67;;;;;;;;;;5033574;28;20217;-73
2023/08/19 10:24:40;;;;;;;2.72;2.20;;;;;;;;;;5033461;28;20234;-73
2023/08/19 10:27:45;;;;;;;4.22;2.53;;;;;;;;;;5021241;28;20221;-73
2023/08/19 10:31:08;;;;;;;2.70;2.50;;;;;;;;;;5021356;28;20189;-73
2023/08/19 10:34:45;;;;;;;3.88;2.55;;;;;;;;;;5033528;28;20644;-72
2023/08/19 10:37:49;;;;;;;3.53;2.67;;;;;;;;;;5021511;28;20177;-73
2023/08/19 10:41:02;;;;;;;2.88;2.50;;;;;;;;;;5021402;28;20181;-72
2023/08/19 10:44:10;;;;;;;3.15;2.30;;;;;;;;;;5021436;28;20644;-72
2023/08/19 10:47:18;;;;;;;4.13;2.25;;;;;;;;;;5033328;28;20572;-72
2023/08/19 10:50:24;;;;;;;3.50;2.28;;;;;;;;;;5021267;28;20537;-73
2023/08/19 10:53:28;;;;;;;5.50;2.40;;;;;;;;;;5032711;28;20169;-72
2023/08/19 10:56:33;;;;;;;4.15;2.10;;;;;;;;;;5037563;28;20177;-72
2023/08/19 10:59:39;;;;;;;4.22;2.25;;;;;;;;;;5037365;28;20647;-73
2023/08/19 11:02:43;;;;;;;4.82;2.40;;;;;;;;;;5037073;28;20212;-73
2023/08/19 11:05:51;;;;;;;3.42;2.33;;;;;;;;;;5037202;28;20189;-73
2023/08/19 11:09:02;;;;;;;2.72;2.10;;;;;;;;;;5037083;28;20675;-73
2023/08/19 11:12:07;;;;;;;2.58;2.10;;;;;;;;;;5036917;28;20225;-72
2023/08/19 11:15:11;;;;;;;4.78;2.08;;;;;;;;;;5036965;28;20180;-72
2023/08/19 11:18:19;;;;;;;4.50;2.10;;;;;;;;;;5036863;28;20173;-72
2023/08/19 11:21:27;;;;;;;4.38;2.40;;;;;;;;;;5036739;28;20209;-72
2023/08/19 11:24:34;;;;;;;4.78;2.53;;;;;;;;;;5036973;28;20544;-73
2023/08/19 11:27:39;;;;;;;3.72;1.95;;;;;;;;;;5036199;28;20209;-73
2023/08/19 11:30:43;;;;;;;4.80;2.20;;;;;;;;;;5036723;28;20197;-73
2023/08/19 11:33:47;;;;;;;8.38;2.50;;;;;;;;;;5040789;22;20181;-75
2023/08/19 11:36:51;;;;;;;3.95;2.70;;;;;;;;;;5036515;28;20213;-74
2023/08/19 11:39:55;;;;;;;4.70;2.45;;;;;;;;;;5013009;28;20185;-74
2023/08/19 11:43:11;;;;;;;5.20;2.30;;;;;;;;;;5036198;28;20217;-74
2023/08/19 11:46:15;;;;;;;5.50;2.20;;;;;;;;;;5035950;28;20540;-74
2023/08/19 11:49:20;;;;;;;3.92;2.10;;;;;;;;;;5035769;28;20224;-74
2023/08/19 11:52:25;;;;;;;7.35;2.72;;;;;;;;;;5023697;28;20228;-74
2023/08/19 11:55:30;;;;;;;6.82;2.65;;;;;;;;;;5035744;28;20196;-74
2023/08/19 11:58:41;;;;;;;6.00;2.47;;;;;;;;;;5035933;28;20192;-75
2023/08/19 12:01:46;;;;;;;4.72;2.60;;;;;;;;;;5023856;28;20220;-74
2023/08/19 12:04:54;;;;;;;9.35;2.97;;;;;;;;;;5023238;28;20189;-75
2023/08/19 12:07:58;;;;;;;5.00;2.70;;;;;;;;;;5015806;28;20680;-74
2023/08/19 12:11:02;;;;;;;7.45;2.53;;;;;;;;;;5003855;28;20178;-74
2023/08/19 12:14:06;;;;;;;5.63;2.75;;;;;;;;;;5015643;28;20185;-74
2023/08/19 12:17:12;;;;;;;6.00;2.42;;;;;;;;;;5003808;28;20178;-75
2023/08/19 12:20:16;;;;;;;7.65;2.90;;;;;;;;;;5015747;28;20169;-75
2023/08/19 12:23:21;;;;;;;5.60;2.50;;;;;;;;;;5015503;28;20181;-75
2023/08/19 12:26:26;;;;;;;6.63;2.42;;;;;;;;;;4992796;28;20181;-75
2023/08/19 12:29:30;;;;;;;8.73;2.50;;;;;;;;;;5015740;28;20553;-76
2023/08/19 12:32:33;;;;;;;3.97;2.50;;;;;;;;;;5015636;28;20217;-76
2023/08/19 12:35:38;;;;;;;6.97;2.85;;;;;;;;;;5015157;28;20205;-75
2023/08/19 12:38:42;;;;;;;4.65;2.60;;;;;;;;;;5015356;28;20648;-75
2023/08/19 12:41:47;;;;;;;4.38;2.80;;;;;;;;;;5003152;28;20221;-75
2023/08/19 12:44:51;;;;;;;7.47;2.80;;;;;;;;;;5003864;28;20629;-75
2023/08/19 12:47:55;;;;;;;6.93;2.92;;;;;;;;;;5003220;28;20193;-76
2023/08/19 12:51:00;;;;;;;4.45;2.55;;;;;;;;;;5003125;28;20202;-75
2023/08/19 12:54:05;;;;;;;6.90;2.90;;;;;;;;;;5015271;28;20186;-75
2023/08/19 12:57:09;;;;;;;9.35;3.08;;;;;;;;;;5015163;28;20186;-75
2023/08/19 13:00:15;;;;;;;4.88;2.30;;;;;;;;;;5003118;28;20178;-75
2023/08/19 13:03:19;;;;;;;5.05;2.60;;;;;;;;;;5015233;28;20186;-75
2023/08/19 13:06:23;;;;;;;6.55;2.47;;;;;;;;;;5002660;28;20182;-75
2023/08/19 13:09:27;;;;;;;5.43;2.05;;;;;;;;;;5014835;28;20197;-75
2023/08/19 13:12:32;;;;;;;7.25;3.00;;;;;;;;;;5002633;28;20221;-74
2023/08/19 13:15:37;;;;;;;7.07;2.60;;;;;;;;;;5002965;28;20517;-74
2023/08/19 13:18:41;;;;;;;4.85;2.45;;;;;;;;;;5014629;28;20613;-74
2023/08/19 13:21:45;;;;;;;5.45;2.70;;;;;;;;;;5002298;28;20692;-74
2023/08/19 13:24:51;;;;;;;6.30;2.58;;;;;;;;;;5014636;28;20181;-74
2023/08/19 13:27:55;;;;;;;6.03;2.53;;;;;;;;;;5015163;28;20182;-74
2023/08/19 13:30:59;;;;;;;6.18;2.70;;;;;;;;;;5014569;28;20202;-74
2023/08/19 13:34:03;;;;;;;4.93;2.80;;;;;;;;;;5002223;28;20209;-74
2023/08/19 13:37:07;;;;;;;5.32;2.58;;;;;;;;;;5014502;28;20178;-75
2023/08/19 13:40:12;;;;;;;6.55;2.72;;;;;;;;;;5002252;28;20193;-75
2023/08/19 13:43:16;;;;;;;4.57;2.75;;;;;;;;;;5014340;28;20201;-76
2023/08/19 13:46:20;;;;;;;4.47;2.45;;;;;;;;;;5002468;28;20182;-75
2023/08/19 13:49:25;;;;;;;15.00;6.75;;;;;;;;;;5002085;28;20213;-75
2023/08/19 13:52:41;;;;;;;6.15;2.83;;;;;;;;;;5014137;28;20225;-75
2023/08/19 13:55:46;;;;;;;7.55;2.63;;;;;;;;;;5013909;28;20617;-74
2023/08/19 13:58:50;;;;;;;8.63;2.63;;;;;;;;;;5002016;28;20178;-75
2023/08/19 14:01:54;;;;;;;6.35;2.70;;;;;;;;;;5014141;28;20213;-74
2023/08/19 14:04:58;;;;;;;4.72;2.60;;;;;;;;;;5013657;28;20197;-74
2023/08/19 14:08:03;;;;;;;7.50;2.72;;;;;;;;;;4990688;28;20545;-74
2023/08/19 14:11:10;;;;;;;5.65;2.47;;;;;;;;;;5013476;28;20645;-75
2023/08/19 14:14:14;;;;;;;5.35;2.60;;;;;;;;;;5013868;28;20193;-75
2023/08/19 14:17:18;;;;;;;4.38;2.90;;;;;;;;;;5013799;28;20202;-74
2023/08/19 14:20:22;;;;;;;4.28;2.78;;;;;;;;;;5013846;28;20177;-74
2023/08/19 14:23:27;;;;;;;6.68;2.67;;;;;;;;;;5013808;28;20185;-74
2023/08/19 14:26:31;;;;;;;10.85;2.90;;;;;;;;;;5001217;28;20182;-75
2023/08/19 14:29:35;;;;;;;7.13;2.58;;;;;;;;;;5012736;28;20197;-75
2023/08/19 14:32:39;;;;;;;4.78;2.30;;;;;;;;;;5013569;28;20221;-74
2023/08/19 14:35:45;;;;;;;6.57;2.92;;;;;;;;;;5014437;28;20565;-74
2023/08/19 14:38:49;;;;;;;8.20;2.65;;;;;;;;;;5013438;28;20629;-74
2023/08/19 14:41:53;;;;;;;4.80;2.45;;;;;;;;;;5001284;28;20247;-74
2023/08/19 14:44:57;;;;;;;5.93;2.50;;;;;;;;;;5013318;28;20177;-74
2023/08/19 14:48:01;;;;;;;6.35;2.33;;;;;;;;;;5013309;28;20186;-74
2023/08/19 14:51:05;;;;;;;5.20;2.55;;;;;;;;;;5013194;28;20190;-74
2023/08/19 14:54:09;;;;;;;9.60;2.78;;;;;;;;;;5001105;28;20197;-74
2023/08/19 14:57:14;;;;;;;4.60;2.30;;;;;;;;;;5013206;28;20198;-74
2023/08/19 15:00:18;;;;;;;4.68;2.40;;;;;;;;;;5013222;28;20182;-74
2023/08/19 15:03:22;;;;;;;8.70;2.40;;;;;;;;;;5013154;28;20537;-74
2023/08/19 15:06:27;;;;;;;12.35;3.22;;;;;;;;;;5013474;28;20182;-74
2023/08/19 15:09:31;;;;;;;4.82;2.50;;;;;;;;;;5013301;28;20213;-74
2023/08/19 15:12:36;;;;;;;7.93;2.50;;;;;;;;;;5013021;28;20221;-74
2023/08/19 15:15:40;;;;;;;7.10;2.65;;;;;;;;;;5013033;28;20182;-74
2023/08/19 15:18:44;;;;;;;6.07;2.38;;;;;;;;;;5012966;28;20178;-74
2023/08/19 15:21:48;;;;;;;7.30;2.22;;;;;;;;;;5012714;28;20691;-74
2023/08/19 15:24:54;;;;;;;7.47;2.80;;;;;;;;;;5012893;28;20197;-74
2023/08/19 15:27:58;;;;;;;4.78;2.30;;;;;;;;;;4989858;28;20178;-75
2023/08/19 15:31:02;;;;;;;7.72;2.70;;;;;;;;;;5013001;28;20182;-74
2023/08/19 15:34:06;;;;;;;5.57;2.20;;;;;;;;;;5012767;28;20664;-74
2023/08/19 15:37:10;;;;;;;7.90;2.30;;;;;;;;;;5012778;28;20178;-74
2023/08/19 15:40:14;;;;;;;7.70;2.50;;;;;;;;;;4990207;28;20356;-75
2023/08/19 15:43:18;;;;;;;8.85;2.45;;;;;;;;;;5016635;28;20173;-74
2023/08/19 15:46:22;;;;;;;10.15;3.20;;;;;;;;;;5016283;28;20201;-74
2023/08/19 15:49:27;;;;;;;6.75;2.40;;;;;;;;;;5003968;28;20217;-74
2023/08/19 15:52:31;;;;;;;9.57;2.55;;;;;;;;;;5015998;28;20225;-74
2023/08/19 15:55:35;;;;;;;7.90;2.45;;;;;;;;;;5016077;28;20182;-74
2023/08/19 15:58:39;;;;;;;4.78;2.08;;;;;;;;;;5004035;28;20177;-74
2023/08/19 16:01:43;;;;;;;9.80;2.45;;;;;;;;;;5015980;28;20217;-73
2023/08/19 16:04:47;;;;;;;6.43;2.53;;;;;;;;;;5015921;28;20177;-74
2023/08/19 16:07:51;;;;;;;6.63;2.58;;;;;;;;;;5015893;28;20182;-74
2023/08/19 16:11:06;;;;;;;6.38;2.55;;;;;;;;;;5041758;28;20184;-73
2023/08/19 16:14:10;;;;;;;7.13;2.40;;;;;;;;;;5055369;28;20570;-74
2023/08/19 16:17:14;;;;;;;4.50;2.50;;;;;;;;;;5056050;28;20177;-74
2023/08/19 16:20:19;;;;;;;9.13;2.63;;;;;;;;;;5055169;28;20172;-74
2023/08/19 16:23:23;;;;;;;7.50;2.38;;;;;;;;;;5055185;28;20176;-74
2023/08/19 16:26:27;;;;;;;13.65;2.78;;;;;;;;;;5055315;28;20176;-74
2023/08/19 16:29:31;;;;;;;6.43;2.42;;;;;;;;;;5055037;28;20204;-74
2023/08/19 16:32:35;;;;;;;7.15;2.60;;;;;;;;;;5055853;28;20216;-74
2023/08/19 16:35:40;;;;;;;9.68;2.83;;;;;;;;;;5054966;28;20196;-74
2023/08/19 16:38:44;;;;;;;8.07;2.45;;;;;;;;;;5055022;28;20180;-74
2023/08/19 16:41:48;;;;;;;7.95;2.58;;;;;;;;;;5042646;28;20216;-73
2023/08/19 16:44:52;;;;;;;9.95;2.35;;;;;;;;;;5055126;28;20180;-74
2023/08/19 16:47:57;;;;;;;7.07;2.55;;;;;;;;;;5055037;28;20180;-73
2023/08/19 16:51:02;;;;;;;6.72;2.42;;;;;;;;;;5055038;28;20208;-73
2023/08/19 16:54:07;;;;;;;5.95;2.40;;;;;;;;;;5042480;28;20189;-74
2023/08/19 16:57:10;;;;;;;5.95;2.28;;;;;;;;;;5054631;28;20180;-74
2023/08/19 17:00:15;;;;;;;5.30;2.20;;;;;;;;;;5042642;28;20176;-74
2023/08/19 17:03:19;;;;;;;9.13;2.72;;;;;;;;;;5042550;28;20180;-73
2023/08/19 17:06:23;;;;;;;6.13;2.22;;;;;;;;;;5042159;28;20180;-73
2023/08/19 17:09:28;;;;;;;8.40;2.35;;;;;;;;;;5054636;28;20204;-73
2023/08/19 17:12:32;;;;;;;7.53;2.63;;;;;;;;;;5054550;28;20220;-73
2023/08/19 17:15:36;;;;;;;5.40;2.58;;;;;;;;;;5042315;28;20181;-73
2023/08/19 17:18:40;;;;;;;5.90;2.40;;;;;;;;;;5054517;28;20515;-74
2023/08/19 17:21:44;;;;;;;6.30;2.45;;;;;;;;;;5054147;28;20551;-74
2023/08/19 17:24:48;;;;;;;5.50;2.50;;;;;;;;;;5054288;28;20180;-74
2023/08/19 17:27:52;;;;;;;7.72;2.70;;;;;;;;;;5054051;28;20179;-74
2023/08/19 17:31:04;;;;;;;6.63;2.63;;;;;;;;;;5054752;28;20211;-74
2023/08/19 17:34:08;;;;;;;7.90;2.70;;;;;;;;;;5053954;28;20219;-74
2023/08/19 17:37:12;;;;;;;6.43;2.42;;;;;;;;;;5053867;28;20182;-73
2023/08/19 17:40:16;;;;;;;10.70;2.60;;;;;;;;;;5053758;28;20178;-73
2023/08/19 17:43:21;;;;;;;10.05;2.58;;;;;;;;;;5054038;28;20623;-73
2023/08/19 17:46:25;;;;;;;8.05;2.80;;;;;;;;;;5053679;28;20645;-73
2023/08/19 17:49:29;;;;;;;6.05;2.70;;;;;;;;;;5053528;28;20214;-73
2023/08/19 17:52:33;;;;;;;6.88;2.83;;;;;;;;;;5030070;28;20223;-74
2023/08/19 17:55:38;;;;;;;8.40;2.63;;;;;;;;;;5053519;28;20174;-73
2023/08/19 17:58:42;;;;;;;5.25;2.92;;;;;;;;;;5053651;28;20183;-74
2023/08/19 18:01:46;;;;;;;8.43;3.40;;;;;;;;;;5029969;28;20538;-74
2023/08/19 18:04:50;;;;;;;8.77;3.13;;;;;;;;;;5053195;28;20179;-74
2023/08/19 18:07:55;;;;;;;8.35;2.50;;;;;;;;;;5053419;28;20180;-74
2023/08/19 18:10:59;;;;;;;10.80;3.00;;;;;;;;;;5029294;28;20201;-74
2023/08/19 18:14:04;;;;;;;7.70;2.72;;;;;;;;;;5053119;28;20174;-74
2023/08/19 18:17:08;;;;;;;12.45;3.50;;;;;;;;;;5053097;28;20178;-74
2023/08/19 18:20:13;;;;;;;11.25;3.15;;;;;;;;;;5053055;28;20521;-74
2023/08/19 18:23:17;;;;;;;7.95;2.78;;;;;;;;;;5029403;28;20178;-74
2023/08/19 18:26:21;;;;;;;12.15;3.28;;;;;;;;;;5040726;28;20195;-74
2023/08/19 18:29:25;;;;;;;10.38;3.00;;;;;;;;;;5040592;28;20194;-74
2023/08/19 18:32:29;;;;;;;8.95;3.20;;;;;;;;;;5053038;28;20557;-75